Time;durP1;ratioP1;P1;durP2;ratioP2;P2;SDS_P1;SDS_P2;PMS_P1;PMS_P2;Temp;Humidity;BMP_temperature;BMP_pressure;BME280_temperature;BME280_humidity;BME280_pressure;Samples;Min_cycle;Max_cycle;Signal;HPM_P1;HPM_P2
2023/02/28 00:01:12;;;;;;;7.40;5.20;;;;;;;-2.17;67.35;100905.23;106035;1258;68225;-73
2023/02/28 00:03:40;;;;;;;9.30;6.00;;;;;;;-2.22;67.24;100907.14;106677;1253;72381;-73
2023/02/28 00:06:09;;;;;;;9.20;5.80;;;;;;;-2.26;67.53;100901.55;107565;1253;61703;-72
2023/02/28 00:08:38;;;;;;;7.20;4.90;;;;;;;-2.25;67.71;100896.84;106742;1256;59464;-72
2023/02/28 00:11:10;;;;;;;8.00;5.50;;;;;;;-2.24;67.85;100897.66;105903;1253;72764;-71
2023/02/28 00:13:40;;;;;;;8.00;5.90;;;;;;;-2.25;67.74;100895.29;105534;1257;70121;-72
2023/02/28 00:16:11;;;;;;;8.50;5.80;;;;;;;-2.24;67.66;100900.98;105594;1253;73691;-70
2023/02/28 00:18:39;;;;;;;7.40;5.40;;;;;;;-2.25;67.86;100901.17;105641;1253;61707;-75
2023/02/28 00:21:08;;;;;;;9.20;5.50;;;;;;;-2.26;67.77;100902.80;105846;1253;61466;-71
2023/02/28 00:23:36;;;;;;;8.30;5.80;;;;;;;-2.29;67.92;100899.97;105515;1255;74263;-70
2023/02/28 00:26:04;;;;;;;8.10;5.90;;;;;;;-2.32;67.93;100901.08;105562;1258;70597;-74
2023/02/28 00:28:34;;;;;;;10.00;5.60;;;;;;;-2.31;68.05;100897.60;105791;1253;72747;-75
2023/02/28 00:31:04;;;;;;;8.50;5.50;;;;;;;-2.30;68.12;100898.24;105758;1258;63330;-74
2023/02/28 00:33:33;;;;;;;8.00;5.40;;;;;;;-2.19;67.88;100900.08;105717;1254;60193;-75
2023/02/28 00:36:06;;;;;;;7.00;5.20;;;;;;;-2.07;67.76;100899.30;105883;1253;73305;-77
2023/02/28 00:38:38;;;;;;;10.10;6.90;;;;;;;-2.07;67.80;100902.58;106269;1254;71305;-73
2023/02/28 00:41:07;;;;;;;8.00;6.30;;;;;;;-2.09;67.82;100904.40;106864;1254;71357;-76
2023/02/28 00:43:36;;;;;;;13.80;10.40;;;;;;;-2.09;67.87;100902.31;106334;1253;60439;-74
2023/02/28 00:46:04;;;;;;;20.70;15.70;;;;;;;-2.06;67.98;100903.05;105751;1259;61449;-72
2023/02/28 00:48:34;;;;;;;22.40;15.70;;;;;;;-2.02;67.80;100900.98;105919;1255;73657;-75
2023/02/28 00:51:02;;;;;;;14.40;11.00;;;;;;;-2.01;67.69;100900.77;105837;1253;70589;-73
2023/02/28 00:53:33;;;;;;;13.70;9.80;;;;;;;-2.04;67.55;100904.22;105889;1257;73883;-73
2023/02/28 00:56:01;;;;;;;8.60;7.00;;;;;;;-2.09;67.47;100899.38;105841;1253;60137;-76
2023/02/28 00:58:34;;;;;;;12.00;8.60;;;;;;;-2.18;67.50;100898.14;105674;1253;60617;-74
2023/02/28 01:01:03;;;;;;;13.90;9.20;;;;;;;-2.26;67.58;100897.04;105683;1260;73930;-80
2023/02/28 01:03:31;;;;;;;11.00;7.70;;;;;;;-2.32;67.67;100897.61;105817;1254;69536;-75
2023/02/28 01:05:59;;;;;;;7.90;5.90;;;;;;;-2.35;67.67;100900.86;108382;1253;71884;-74
2023/02/28 01:08:28;;;;;;;8.80;6.00;;;;;;;-2.40;67.59;100904.15;106642;1253;60620;-74
2023/02/28 01:10:57;;;;;;;8.10;5.20;;;;;;;-2.43;67.70;100906.52;106073;1257;59622;-74
2023/02/28 01:13:25;;;;;;;7.90;5.40;;;;;;;-2.46;67.65;100905.08;105723;1255;72321;-74
2023/02/28 01:15:55;;;;;;;7.20;5.10;;;;;;;-2.49;67.78;100907.29;105869;1253;71684;-73
2023/02/28 01:18:24;;;;;;;8.00;5.00;;;;;;;-2.53;67.84;100910.54;105944;1253;71354;-72
2023/02/28 01:20:53;;;;;;;7.70;5.70;;;;;;;-2.58;67.99;100904.80;106535;1253;59925;-75
2023/02/28 01:23:23;;;;;;;7.00;4.60;;;;;;;-2.59;68.11;100900.35;106033;1258;59665;-72
2023/02/28 01:25:52;;;;;;;8.70;4.70;;;;;;;-2.59;68.00;100906.42;105824;1258;73066;-75
2023/02/28 01:28:21;;;;;;;5.90;3.60;;;;;;;-2.52;67.95;100906.68;105783;1258;68964;-72
2023/02/28 01:30:51;;;;;;;7.00;4.50;;;;;;;-2.41;67.64;100903.86;105930;1253;72459;-72
2023/02/28 01:33:20;;;;;;;6.40;4.20;;;;;;;-2.43;67.38;100904.10;105907;1253;59796;-71
2023/02/28 01:35:48;;;;;;;7.30;4.30;;;;;;;-2.45;67.42;100908.36;105579;1254;60508;-71
2023/02/28 01:38:17;;;;;;;6.50;4.20;;;;;;;-2.47;67.41;100910.48;105971;1257;74264;-71
2023/02/28 01:40:50;;;;;;;5.60;4.10;;;;;;;-2.50;67.16;100912.52;106308;1254;69711;-71
2023/02/28 01:43:20;;;;;;;7.80;5.00;;;;;;;-2.55;67.07;100913.90;105994;1254;70613;-69
2023/02/28 01:45:48;;;;;;;7.50;4.40;;;;;;;-2.57;67.14;100915.55;105840;1255;59990;-72
2023/02/28 01:48:17;;;;;;;6.90;4.30;;;;;;;-2.60;67.11;100912.89;105739;1253;60059;-73
2023/02/28 01:50:46;;;;;;;6.20;4.30;;;;;;;-2.61;67.25;100907.89;105860;1258;72942;-73
2023/02/28 01:53:17;;;;;;;8.60;4.30;;;;;;;-2.62;67.26;100907.23;105941;1257;70570;-72
2023/02/28 01:55:48;;;;;;;8.60;5.10;;;;;;;-2.62;67.04;100910.52;105908;1253;73612;-74
2023/02/28 01:58:16;;;;;;;7.80;5.00;;;;;;;-2.65;67.27;100909.05;106398;1253;60440;-71
2023/02/28 02:00:46;;;;;;;7.80;5.10;;;;;;;-2.67;66.98;100911.55;107316;1253;60254;-71
2023/02/28 02:03:18;;;;;;;6.60;4.20;;;;;;;-2.69;67.10;100913.58;106800;1257;73728;-73
2023/02/28 02:05:47;;;;;;;7.60;4.70;;;;;;;-2.73;67.19;100918.17;107071;1253;70270;-70
2023/02/28 02:08:21;;;;;;;7.10;4.60;;;;;;;-2.74;67.25;100917.70;107185;1253;72986;-71
2023/02/28 02:10:53;;;;;;;5.60;4.20;;;;;;;-2.73;67.13;100914.23;107107;1253;60424;-71
2023/02/28 02:13:46;;;;;;;5.10;4.10;;;;;;;-2.74;67.25;100916.67;107089;1252;61129;-71
2023/02/28 02:16:19;;;;;;;6.30;3.90;;;;;;;-2.75;67.20;100917.40;107065;1253;72679;-73
2023/02/28 02:19:11;;;;;;;5.30;4.80;;;;;;;-2.77;67.07;100920.94;107220;1254;69367;-74
2023/02/28 02:22:22;;;;;;;6.30;4.00;;;;;;;-2.80;67.23;100920.68;107286;1258;72840;-74
2023/02/28 02:25:28;;;;;;;6.40;4.40;;;;;;;-2.83;67.14;100922.52;107357;1253;61349;-72
2023/02/28 02:28:02;;;;;;;6.20;4.50;;;;;;;-2.86;67.18;100932.17;107414;1253;60423;-74
2023/02/28 02:30:45;;;;;;;8.70;4.90;;;;;;;-2.88;67.34;100934.14;107587;1253;75115;-71
2023/02/28 02:33:32;;;;;;;6.60;4.30;;;;;;;-2.87;67.35;100933.41;107882;1254;70016;-73
2023/02/28 02:36:16;;;;;;;6.60;4.50;;;;;;;-2.85;67.44;100934.41;108051;1253;72657;-73
2023/02/28 02:38:50;;;;;;;6.40;3.90;;;;;;;-2.70;67.17;100934.91;109291;1252;61916;-74
2023/02/28 02:41:33;;;;;;;5.80;3.50;;;;;;;-2.58;67.09;100939.33;109297;1253;59993;-72
2023/02/28 02:44:11;;;;;;;5.20;3.50;;;;;;;-2.54;67.04;100943.88;109245;1252;73602;-75
2023/02/28 02:46:44;;;;;;;6.00;4.00;;;;;;;-2.54;67.01;100941.30;109261;1253;68916;-73
2023/02/28 02:49:19;;;;;;;7.30;4.40;;;;;;;-2.55;66.97;100945.66;109100;1253;72148;-74
2023/02/28 02:51:49;;;;;;;5.90;3.90;;;;;;;-2.58;66.98;100946.79;109136;1252;58501;-73
2023/02/28 02:54:28;;;;;;;7.00;4.30;;;;;;;-2.56;66.86;100945.52;109109;1253;60279;-73
2023/02/28 02:56:59;;;;;;;6.50;4.40;;;;;;;-2.58;66.89;100945.59;109049;1253;72919;-75
2023/02/28 02:59:29;;;;;;;6.60;4.40;;;;;;;-2.58;66.76;100950.77;109341;1253;70294;-75
2023/02/28 03:02:05;;;;;;;5.00;3.60;;;;;;;-2.54;66.74;100946.68;109337;1253;71445;-76
2023/02/28 03:04:40;;;;;;;4.90;3.90;;;;;;;-2.54;66.70;100953.96;109116;1253;60302;-74
2023/02/28 03:07:15;;;;;;;5.70;3.90;;;;;;;-2.59;66.46;100957.07;109273;1253;61197;-75
2023/02/28 03:09:52;;;;;;;8.90;4.20;;;;;;;-2.63;66.46;100958.08;109068;1253;71596;-74
2023/02/28 03:12:32;;;;;;;5.40;3.80;;;;;;;-2.64;66.65;100961.93;108883;1253;69536;-72
2023/02/28 03:15:12;;;;;;;5.90;4.10;;;;;;;-2.62;66.61;100961.16;108848;1253;71805;-74
2023/02/28 03:18:04;;;;;;;7.80;4.10;;;;;;;-2.60;66.67;100963.52;108605;1253;60399;-74
2023/02/28 03:20:51;;;;;;;5.70;3.80;;;;;;;-2.58;66.49;100969.17;106938;1253;60445;-76
2023/02/28 03:23:35;;;;;;;5.60;4.00;;;;;;;-2.57;66.41;100971.37;106339;1260;74664;-74
2023/02/28 03:26:14;;;;;;;7.10;4.30;;;;;;;-2.57;66.30;100969.14;106587;1253;70098;-74
2023/02/28 03:28:54;;;;;;;8.10;4.00;;;;;;;-2.57;66.36;100970.68;105673;1253;73870;-72
2023/02/28 03:31:27;;;;;;;6.20;3.90;;;;;;;-2.56;66.19;100974.84;106156;1253;61263;-73
2023/02/28 03:34:19;;;;;;;7.00;4.20;;;;;;;-2.59;66.12;100977.02;105853;1253;60325;-74
2023/02/28 03:36:49;;;;;;;5.70;3.60;;;;;;;-2.62;66.01;100979.91;105717;1260;73102;-76
2023/02/28 03:39:20;;;;;;;7.60;4.90;;;;;;;-2.65;66.06;100982.44;106071;1253;71077;-76
2023/02/28 03:41:59;;;;;;;7.80;4.70;;;;;;;-2.67;66.06;100988.91;106066;1253;72998;-75
2023/02/28 03:44:37;;;;;;;7.00;4.40;;;;;;;-2.68;66.11;100988.79;105788;1258;60687;-75
2023/02/28 03:47:12;;;;;;;8.20;4.40;;;;;;;-2.74;66.22;100986.36;105944;1254;60533;-74
2023/02/28 03:49:47;;;;;;;7.50;4.70;;;;;;;-2.74;66.18;100983.80;106066;1259;74870;-75
2023/02/28 03:52:15;;;;;;;6.90;4.90;;;;;;;-2.77;66.26;100986.67;105888;1258;71975;-75
2023/02/28 03:54:46;;;;;;;8.10;5.00;;;;;;;-2.83;66.16;100982.02;106196;1256;73651;-76
2023/02/28 03:57:27;;;;;;;7.90;4.80;;;;;;;-2.86;66.42;100987.14;105902;1253;61411;-75
2023/02/28 04:00:00;;;;;;;10.50;5.20;;;;;;;-2.88;66.35;100987.73;105817;1255;61553;-75
2023/02/28 04:02:28;;;;;;;7.30;4.40;;;;;;;-2.92;66.35;100986.81;105620;1255;72899;-74
2023/02/28 04:05:02;;;;;;;;;;;;;;;-2.95;66.47;100989.52;105802;1253;71331;-73
2023/02/28 04:07:31;;;;;;;6.90;4.50;;;;;;;-2.95;66.52;100990.75;105738;1253;73060;-72
2023/02/28 04:09:59;;;;;;;8.50;5.30;;;;;;;-2.97;66.52;100985.77;106042;1253;60409;-72
2023/02/28 04:12:28;;;;;;;8.60;5.20;;;;;;;-2.98;66.54;100985.29;105975;1253;59278;-69
2023/02/28 04:14:56;;;;;;;10.90;5.80;;;;;;;-3.00;66.48;100982.58;106513;1256;74055;-73
2023/02/28 04:17:24;;;;;;;11.40;4.40;;;;;;;-3.02;66.53;100983.52;106156;1253;71002;-72
2023/02/28 04:19:56;;;;;;;8.60;5.70;;;;;;;-3.06;66.43;100993.52;105849;1256;73605;-73
2023/02/28 04:22:26;;;;;;;8.10;4.80;;;;;;;-3.10;66.56;100988.98;106057;1253;61109;-74
2023/02/28 04:24:54;;;;;;;8.20;4.70;;;;;;;-3.14;66.72;100988.93;105970;1258;61324;-75
2023/02/28 04:27:22;;;;;;;8.20;5.10;;;;;;;-3.17;66.71;100987.63;105787;1259;74829;-72
2023/02/28 04:29:50;;;;;;;9.00;5.60;;;;;;;-3.19;66.77;100986.48;106153;1253;71277;-72
2023/02/28 04:32:19;;;;;;;8.90;5.10;;;;;;;-3.19;66.87;100991.01;106231;1253;72889;-72
2023/02/28 04:34:47;;;;;;;8.50;6.00;;;;;;;-3.20;66.83;100991.21;106000;1253;61466;-73
2023/02/28 04:37:16;;;;;;;7.90;5.10;;;;;;;-3.23;66.73;100990.08;105745;1253;61657;-74
2023/02/28 04:39:45;;;;;;;7.60;5.60;;;;;;;-3.27;66.80;100992.15;105785;1253;73593;-71
2023/02/28 04:42:14;;;;;;;8.10;5.70;;;;;;;-3.30;66.98;100996.55;105683;1253;70712;-71
2023/02/28 04:44:44;;;;;;;9.30;5.50;;;;;;;-3.29;67.11;101003.45;106059;1257;72529;-73
2023/02/28 04:47:13;;;;;;;6.90;5.00;;;;;;;-3.29;67.22;101003.11;105791;1253;61389;-73
2023/02/28 04:49:42;;;;;;;8.50;5.60;;;;;;;-3.29;67.21;101005.89;105838;1253;61395;-73
2023/02/28 04:52:11;;;;;;;10.30;5.90;;;;;;;-3.31;67.16;101007.52;105906;1257;74813;-75
2023/02/28 04:54:41;;;;;;;11.60;6.70;;;;;;;-3.31;67.30;101005.26;105817;1253;71551;-71
2023/02/28 04:57:10;;;;;;;14.80;6.40;;;;;;;-3.19;67.25;101007.11;105599;1253;72985;-72
2023/02/28 04:59:38;;;;;;;12.10;5.70;;;;;;;-3.05;67.00;101008.56;105671;1260;60482;-71
2023/02/28 05:02:08;;;;;;;10.10;5.50;;;;;;;-3.05;67.11;101010.46;105706;1260;61577;-70
2023/02/28 05:04:36;;;;;;;8.70;5.20;;;;;;;-3.06;67.38;101010.87;105651;1260;72732;-71
2023/02/28 05:07:05;;;;;;;12.50;5.80;;;;;;;-3.04;67.15;101013.91;105994;1253;71279;-71
2023/02/28 05:09:34;;;;;;;11.30;7.00;;;;;;;-3.05;67.09;101011.35;106091;1253;73649;-74
2023/02/28 05:12:06;;;;;;;11.00;5.90;;;;;;;-3.05;67.03;101015.49;106900;1253;60759;-72
2023/02/28 05:14:36;;;;;;;8.30;5.50;;;;;;;-3.03;66.82;101013.70;106775;1253;60878;-76
2023/02/28 05:17:05;;;;;;;10.90;5.80;;;;;;;-3.06;66.81;101015.72;106209;1253;75066;-76
2023/02/28 05:19:35;;;;;;;14.20;6.20;;;;;;;-3.12;66.83;101016.94;105950;1253;71244;-75
2023/02/28 05:22:03;;;;;;;11.00;6.80;;;;;;;-3.16;67.06;101012.55;106076;1258;71672;-74
2023/02/28 05:24:39;;;;;;;11.00;6.50;;;;;;;-3.14;67.29;101015.11;106311;1253;60457;-72
2023/02/28 05:27:08;;;;;;;13.00;6.30;;;;;;;-3.14;67.26;101020.64;106129;1253;60558;-72
2023/02/28 05:29:41;;;;;;;12.30;6.60;;;;;;;-3.15;67.32;101020.33;105937;1260;73622;-73
2023/02/28 05:32:11;;;;;;;11.60;6.40;;;;;;;-3.18;67.57;101019.55;106418;1253;70623;-73
2023/02/28 05:34:40;;;;;;;13.60;6.40;;;;;;;-3.19;67.67;101018.38;106121;1259;73658;-71
2023/02/28 05:37:16;;;;;;;10.60;6.00;;;;;;;-3.17;67.65;101021.78;106082;1253;60635;-74
2023/02/28 05:39:46;;;;;;;10.70;6.70;;;;;;;-3.17;67.82;101024.90;106280;1258;61091;-75
2023/02/28 05:42:15;;;;;;;10.70;6.30;;;;;;;-3.15;67.91;101028.32;106228;1257;75010;-74
2023/02/28 05:44:44;;;;;;;11.60;6.30;;;;;;;-3.15;67.97;101030.38;106243;1253;71618;-71
2023/02/28 05:47:15;;;;;;;14.30;5.40;;;;;;;-3.12;68.00;101029.10;106070;1256;72604;-74
2023/02/28 05:49:43;;;;;;;11.40;5.60;;;;;;;-3.11;67.86;101028.86;106090;1254;60752;-73
2023/02/28 05:52:14;;;;;;;9.60;5.90;;;;;;;-3.01;67.91;101033.91;105704;1253;60413;-75
2023/02/28 05:54:43;;;;;;;8.50;5.00;;;;;;;-2.85;67.94;101035.50;105843;1261;73876;-74
2023/02/28 05:57:11;;;;;;;10.20;5.20;;;;;;;-2.81;67.87;101034.64;105825;1253;70529;-72
2023/02/28 05:59:51;;;;;;;8.90;5.40;;;;;;;-2.84;67.75;101035.27;105530;1256;72650;-71
2023/02/28 06:02:20;;;;;;;7.80;5.40;;;;;;;-2.90;67.80;101037.21;106020;1253;60718;-72
2023/02/28 06:04:48;;;;;;;9.80;5.90;;;;;;;-2.94;67.80;101041.85;105922;1253;61517;-73
2023/02/28 06:07:17;;;;;;;7.70;5.10;;;;;;;-2.92;67.76;101043.50;106389;1253;72504;-72
2023/02/28 06:09:46;;;;;;;11.70;5.50;;;;;;;-2.86;67.80;101047.66;106021;1254;71371;-71
2023/02/28 06:12:15;;;;;;;8.80;6.20;;;;;;;-2.85;67.53;101045.53;106019;1253;72305;-71
2023/02/28 06:14:44;;;;;;;16.10;13.30;;;;;;;-2.87;67.41;101044.90;105989;1253;61592;-71
2023/02/28 06:17:16;;;;;;;22.10;15.90;;;;;;;-2.90;67.54;101047.28;105815;1256;60448;-71
2023/02/28 06:19:47;;;;;;;23.90;18.30;;;;;;;-2.91;67.59;101045.75;106221;1253;74956;-72
2023/02/28 06:22:16;;;;;;;19.50;14.60;;;;;;;-2.89;67.71;101050.01;106203;1256;69987;-72
2023/02/28 06:24:44;;;;;;;15.00;11.00;;;;;;;-2.88;67.92;101052.38;105880;1255;71933;-70
2023/02/28 06:27:13;;;;;;;12.60;8.30;;;;;;;-2.85;67.77;101050.75;106138;1254;60427;-71
2023/02/28 06:29:43;;;;;;;11.60;7.10;;;;;;;-2.87;67.58;101047.86;106122;1253;60533;-75
2023/02/28 06:32:11;;;;;;;8.90;6.10;;;;;;;-2.89;67.79;101047.07;106496;1253;73810;-76
2023/02/28 06:34:40;;;;;;;10.50;5.80;;;;;;;-2.88;67.71;101052.02;106329;1254;71237;-74
2023/02/28 06:37:08;;;;;;;7.40;5.20;;;;;;;-2.85;67.74;101053.69;105729;1256;72313;-72
2023/02/28 06:39:38;;;;;;;10.90;6.50;;;;;;;-2.85;67.64;101052.64;105818;1253;62011;-70
2023/02/28 06:42:07;;;;;;;8.00;5.40;;;;;;;-2.88;67.74;101051.71;105923;1253;60611;-71
2023/02/28 06:44:36;;;;;;;8.80;5.40;;;;;;;-2.89;67.87;101045.67;105933;1253;73947;-73
2023/02/28 06:47:06;;;;;;;6.50;4.10;;;;;;;-2.87;67.76;101048.04;106376;1253;70241;-75
2023/02/28 06:49:36;;;;;;;10.40;5.20;;;;;;;-2.73;67.62;101043.92;106189;1253;73354;-72
2023/02/28 06:52:05;;;;;;;6.40;4.60;;;;;;;-2.59;67.58;101041.53;106026;1253;60423;-74
2023/02/28 06:54:33;;;;;;;9.70;5.80;;;;;;;-2.51;67.75;101045.45;105805;1253;60447;-73
2023/02/28 06:57:04;;;;;;;9.60;6.20;;;;;;;-2.45;67.73;101044.38;106138;1253;74914;-73
2023/02/28 06:59:34;;;;;;;11.00;5.60;;;;;;;-2.43;67.40;101044.46;106343;1253;69975;-75
2023/02/28 07:02:08;;;;;;;8.30;5.50;;;;;;;-2.44;67.46;101038.27;106150;1259;73680;-73
2023/02/28 07:04:36;;;;;;;8.70;6.20;;;;;;;-2.43;67.38;101038.05;106210;1253;60452;-75
2023/02/28 07:07:05;;;;;;;8.70;6.00;;;;;;;-2.42;67.41;101038.02;106452;1253;61083;-74
2023/02/28 07:09:33;;;;;;;8.60;5.50;;;;;;;-2.43;67.20;101034.75;106272;1253;74991;-74
2023/02/28 07:12:01;;;;;;;7.80;5.40;;;;;;;-2.48;67.21;101030.61;106462;1257;70020;-73
2023/02/28 07:14:30;;;;;;;9.30;6.00;;;;;;;-2.52;67.44;101026.58;106904;1253;72952;-73
2023/02/28 07:16:58;;;;;;;6.80;5.10;;;;;;;-2.51;67.28;101025.33;107170;1257;61944;-73
2023/02/28 07:19:29;;;;;;;9.60;5.80;;;;;;;-2.53;67.18;101025.20;106452;1253;60567;-70
2023/02/28 07:21:58;;;;;;;8.50;6.10;;;;;;;-2.57;67.46;101024.48;106532;1259;74026;-71
2023/02/28 07:24:28;;;;;;;9.60;5.20;;;;;;;-2.58;67.42;101027.81;106157;1262;70153;-73
2023/02/28 07:26:57;;;;;;;8.60;5.40;;;;;;;-2.55;67.43;101027.55;106197;1260;72525;-73
2023/02/28 07:29:25;;;;;;;8.20;5.30;;;;;;;-2.56;67.39;101026.52;105989;1253;61118;-73
2023/02/28 07:31:57;;;;;;;7.90;6.00;;;;;;;-2.57;67.46;101027.92;106202;1257;61136;-74
2023/02/28 07:34:27;;;;;;;9.10;5.70;;;;;;;-2.56;67.51;101029.81;106043;1257;73356;-72
2023/02/28 07:36:57;;;;;;;7.80;5.30;;;;;;;-2.53;67.51;101029.05;106190;1253;69878;-74
2023/02/28 07:39:25;;;;;;;10.20;5.70;;;;;;;-2.54;67.35;101032.00;106046;1260;73079;-73
2023/02/28 07:41:54;;;;;;;8.90;6.10;;;;;;;-2.57;67.45;101030.73;106239;1253;60439;-70
2023/02/28 07:44:26;;;;;;;8.40;6.10;;;;;;;-2.55;67.53;101032.91;106257;1253;60413;-73
2023/02/28 07:46:55;;;;;;;8.00;5.20;;;;;;;-2.53;67.51;101027.80;106317;1253;72893;-73
2023/02/28 07:49:26;;;;;;;7.70;4.80;;;;;;;-2.41;67.19;101022.37;106213;1253;71745;-72
2023/02/28 07:51:57;;;;;;;6.30;4.90;;;;;;;-2.26;67.10;101021.48;106111;1253;72294;-70
2023/02/28 07:54:27;;;;;;;11.20;6.00;;;;;;;-2.20;67.20;101024.38;106290;1253;60559;-72
2023/02/28 07:56:56;;;;;;;11.70;7.10;;;;;;;-2.13;67.18;101025.17;106196;1253;60550;-71
2023/02/28 07:59:30;;;;;;;8.00;5.60;;;;;;;-2.00;67.01;101029.22;105930;1259;75535;-72
2023/02/28 08:01:59;;;;;;;9.00;5.90;;;;;;;-1.92;66.50;101027.73;106369;1259;71094;-70
2023/02/28 08:04:28;;;;;;;9.60;6.40;;;;;;;-1.90;66.20;101025.40;105994;1253;72417;-73
2023/02/28 08:07:17;;;;;;;6.30;5.20;;;;;;;-1.85;65.86;101031.12;106253;1259;60675;-73
2023/02/28 08:09:45;;;;;;;9.90;6.80;;;;;;;-1.83;65.21;101026.88;106727;1253;60331;-74
2023/02/28 08:12:14;;;;;;;10.20;7.30;;;;;;;-1.87;64.98;101024.40;106568;1253;74073;-73
2023/02/28 08:14:43;;;;;;;14.40;9.90;;;;;;;-1.84;65.30;101020.30;106992;1253;69449;-72
2023/02/28 08:17:12;;;;;;;14.40;10.50;;;;;;;-1.77;64.98;101015.70;107116;1257;71387;-73
2023/02/28 08:19:40;;;;;;;17.30;13.60;;;;;;;-1.76;64.65;101018.61;107060;1259;60448;-73
2023/02/28 08:22:12;;;;;;;14.80;12.00;;;;;;;-1.79;64.72;101018.04;107186;1253;60987;-71
2023/02/28 08:24:42;;;;;;;14.70;12.20;;;;;;;-1.80;64.83;101023.10;107197;1260;73711;-71
2023/02/28 08:27:10;;;;;;;12.30;7.10;;;;;;;-1.77;65.09;101024.92;106510;1253;69230;-73
2023/02/28 08:29:38;;;;;;;9.30;7.00;;;;;;;-1.72;64.85;101022.80;106899;1253;73393;-72
2023/02/28 08:32:07;;;;;;;8.80;5.80;;;;;;;-1.67;64.76;101025.58;106784;1253;60444;-72
2023/02/28 08:34:51;;;;;;;6.70;5.20;;;;;;;-1.61;65.04;101025.49;107340;1253;60553;-72
2023/02/28 08:37:23;;;;;;;8.70;5.30;;;;;;;-1.48;64.94;101020.50;107241;1253;73585;-71
2023/02/28 08:39:51;;;;;;;8.70;6.10;;;;;;;-1.33;64.44;101012.61;107355;1253;71237;-72
2023/02/28 08:42:23;;;;;;;13.50;9.40;;;;;;;-1.25;64.08;101011.41;107285;1253;73441;-72
2023/02/28 08:44:54;;;;;;;9.50;6.50;;;;;;;-1.21;64.13;101014.56;107176;1260;59424;-72
2023/02/28 08:47:23;;;;;;;8.30;6.30;;;;;;;-1.16;64.10;101018.37;107544;1258;61087;-73
2023/02/28 08:49:52;;;;;;;9.90;6.40;;;;;;;-1.12;63.97;101014.74;107943;1254;71605;-72
2023/02/28 08:52:20;;;;;;;8.00;5.80;;;;;;;-1.09;63.66;101011.80;108459;1254;69475;-72
2023/02/28 08:54:49;;;;;;;7.00;5.30;;;;;;;-1.07;63.73;101010.17;109026;1255;72557;-71
2023/02/28 08:57:18;;;;;;;7.60;5.30;;;;;;;-1.04;63.30;101011.10;108971;1257;59004;-73
2023/02/28 08:59:46;;;;;;;7.70;5.80;;;;;;;-1.05;63.35;101013.22;108916;1256;60388;-72
2023/02/28 09:02:15;;;;;;;8.30;6.00;;;;;;;-1.02;63.38;101015.54;108583;1254;73977;-72
2023/02/28 09:04:45;;;;;;;10.20;6.70;;;;;;;-1.00;63.22;101015.27;108535;1256;70425;-74
2023/02/28 09:07:16;;;;;;;9.50;6.50;;;;;;;-0.97;63.39;101018.11;108790;1255;72552;-72
2023/02/28 09:09:53;;;;;;;9.30;6.10;;;;;;;-0.87;63.43;101016.48;108700;1256;59279;-71
2023/02/28 09:12:28;;;;;;;8.60;6.00;;;;;;;-0.74;63.10;101015.45;108713;1255;60684;-73
2023/02/28 09:14:57;;;;;;;;;;;;;;;-0.70;62.28;101015.23;108963;1254;73784;-70
2023/02/28 09:17:25;;;;;;;9.20;6.90;;;;;;;-0.74;61.97;101015.42;108860;1256;70004;-73
2023/02/28 09:19:58;;;;;;;11.60;7.40;;;;;;;-0.82;61.91;101012.62;108446;1256;73867;-72
2023/02/28 09:22:26;;;;;;;10.40;7.40;;;;;;;-0.90;62.13;101015.55;108787;1254;60526;-72
2023/02/28 09:24:54;;;;;;;12.10;8.10;;;;;;;-0.89;62.44;101013.61;108979;1258;60098;-72
2023/02/28 09:27:24;;;;;;;10.90;7.00;;;;;;;-0.83;62.64;101014.08;108938;1258;72927;-74
2023/02/28 09:29:56;;;;;;;11.00;7.70;;;;;;;-0.71;62.50;101015.30;108673;1254;69614;-72
2023/02/28 09:32:36;;;;;;;9.80;7.50;;;;;;;-0.59;62.25;101014.24;107667;1256;72211;-71
2023/02/28 09:35:05;;;;;;;12.40;7.30;;;;;;;-0.38;61.66;101011.61;106656;1256;60458;-71
2023/02/28 09:37:39;;;;;;;10.40;7.10;;;;;;;-0.18;61.07;101007.80;106712;1256;60493;-73
2023/02/28 09:40:10;;;;;;;10.40;6.60;;;;;;;0.23;61.10;101005.77;106152;1256;73886;-73
2023/02/28 09:42:39;;;;;;;9.20;7.20;;;;;;;0.92;60.88;100999.31;106054;1256;70070;-73
2023/02/28 09:45:33;;;;;;;9.30;6.90;;;;;;;1.80;58.96;100997.16;106040;1253;72539;-70
2023/02/28 09:48:04;;;;;;;11.90;7.90;;;;;;;2.66;54.60;101001.20;106172;1252;60641;-71
2023/02/28 09:50:54;;;;;;;12.20;8.30;;;;;;;3.09;53.36;100986.50;106137;1253;60469;-72
2023/02/28 09:53:34;;;;;;;9.10;7.50;;;;;;;3.68;52.53;100985.48;106122;1257;74465;-71
2023/02/28 09:56:06;;;;;;;12.70;10.00;;;;;;;4.28;51.46;100982.79;105843;1253;70533;-74
2023/02/28 09:59:07;;;;;;;12.90;9.40;;;;;;;4.72;49.22;100981.03;105819;1257;71520;-73
2023/02/28 10:04:36;;;;;;;10.40;7.80;;;;;;;5.16;48.25;100968.80;102568;1299;601378;-70
2023/02/28 10:07:17;;;;;;;8.80;7.40;;;;;;;5.64;47.51;100972.07;104999;1269;60806;-71
2023/02/28 10:09:45;;;;;;;8.10;6.70;;;;;;;6.10;47.82;100966.79;105038;1272;59423;-71
2023/02/28 10:12:12;;;;;;;10.20;8.60;;;;;;;6.82;47.23;100960.14;105255;1269;73227;-71
2023/02/28 10:14:40;;;;;;;8.90;8.10;;;;;;;7.80;46.01;100954.42;105160;1273;70555;-70
2023/02/28 10:17:15;;;;;;;7.90;7.10;;;;;;;8.69;44.73;100954.73;105038;1272;198947;-70
2023/02/28 10:20:07;;;;;;;8.80;7.60;;;;;;;9.41;42.86;100951.98;105506;1265;59327;-71
2023/02/28 10:22:44;;;;;;;8.00;6.20;;;;;;;9.66;40.79;100948.95;105231;1266;60515;-74
2023/02/28 10:25:28;;;;;;;6.10;5.50;;;;;;;9.41;39.98;100949.66;105415;1260;71980;-73
2023/02/28 10:28:12;;;;;;;7.70;5.80;;;;;;;9.28;40.35;100950.56;105566;1260;71072;-73
2023/02/28 10:30:42;;;;;;;6.90;6.20;;;;;;;9.20;39.31;100943.11;105505;1258;72408;-72
2023/02/28 10:33:34;;;;;;;6.60;5.80;;;;;;;9.05;39.68;100937.35;105560;1258;60544;-72
2023/02/28 10:36:01;;;;;;;7.10;6.30;;;;;;;9.05;40.68;100944.89;105567;1263;61024;-73
2023/02/28 10:38:35;;;;;;;10.00;6.70;;;;;;;9.66;41.07;100937.23;105743;1262;71925;-69
2023/02/28 10:41:28;;;;;;;9.10;6.00;;;;;;;10.59;40.11;100937.95;105605;1260;71211;-72
2023/02/28 10:44:17;;;;;;;7.30;6.20;;;;;;;11.33;37.87;100936.75;105336;1265;72522;-70
2023/02/28 10:46:44;;;;;;;6.50;5.90;;;;;;;11.48;37.61;100937.19;105044;1260;60671;-71
2023/02/28 10:49:22;;;;;;;7.80;5.70;;;;;;;11.76;37.85;100931.16;105127;1262;61173;-74
2023/02/28 10:51:54;;;;;;;7.50;5.90;;;;;;;12.23;36.94;100932.88;105640;1260;71970;-72
2023/02/28 10:54:35;;;;;;;6.70;6.00;;;;;;;12.69;36.46;100930.98;105462;1260;72041;-72
2023/02/28 10:57:28;;;;;;;6.40;5.00;;;;;;;13.08;35.08;100920.70;105524;1264;70877;-73
2023/02/28 11:00:18;;;;;;;5.90;5.40;;;;;;;13.05;35.29;100916.61;105245;1260;61275;-73
2023/02/28 11:02:46;;;;;;;5.90;5.40;;;;;;;13.43;35.26;100916.98;105384;1260;59560;-72
2023/02/28 11:05:34;;;;;;;8.70;5.90;;;;;;;13.83;34.59;100915.73;105600;1257;70894;-72
2023/02/28 11:08:21;;;;;;;9.00;6.30;;;;;;;14.19;33.90;100910.34;105399;1256;70548;-70
2023/02/28 11:10:55;;;;;;;6.20;5.60;;;;;;;14.27;33.84;100902.73;105254;1257;72548;-73
2023/02/28 11:13:30;;;;;;;8.30;5.00;;;;;;;14.34;33.41;100904.59;105610;1261;59667;-72
2023/02/28 11:15:58;;;;;;;5.90;5.40;;;;;;;14.41;32.97;100898.92;105485;1258;61430;-71
2023/02/28 11:18:29;;;;;;;6.50;5.90;;;;;;;14.31;32.41;100894.96;105594;1258;73974;-73
2023/02/28 11:20:58;;;;;;;7.30;5.80;;;;;;;13.78;32.73;100892.51;105849;1257;70037;-70
2023/02/28 11:23:29;;;;;;;6.80;6.10;;;;;;;13.19;33.01;100893.27;105273;1261;70824;-71
2023/02/28 11:25:58;;;;;;;6.50;5.80;;;;;;;12.39;33.55;100892.98;105270;1257;59663;-71
2023/02/28 11:28:43;;;;;;;6.70;6.10;;;;;;;11.65;34.31;100885.16;105251;1257;61145;-71
2023/02/28 11:31:15;;;;;;;7.50;6.80;;;;;;;11.22;35.79;100885.90;105313;1262;74250;-74
2023/02/28 11:33:53;;;;;;;8.30;7.40;;;;;;;11.78;35.56;100887.17;105582;1257;71389;-70
2023/02/28 11:36:21;;;;;;;8.10;7.30;;;;;;;12.35;34.60;100884.27;105193;1257;73541;-70
2023/02/28 11:38:49;;;;;;;8.10;6.90;;;;;;;12.78;34.87;100875.34;105690;1257;61231;-73
2023/02/28 11:41:50;;;;;;;10.10;7.60;;;;;;;13.46;33.51;100874.64;105357;1257;60661;-72
2023/02/28 11:44:51;;;;;;;7.70;6.90;;;;;;;13.59;33.58;100872.80;105240;1259;73350;-71